createdAt,value
2023-02-03T00:01:13.564Z,3.35
2023-02-03T00:04:01.258Z,1.88
2023-02-03T00:06:49.257Z,1.33
2023-02-03T00:09:39.914Z,0.30
2023-02-03T00:12:29.415Z,6.35
2023-02-03T00:15:17.156Z,0.63
2023-02-03T00:18:04.966Z,0.75
2023-02-03T00:20:52.526Z,4.32
2023-02-03T00:23:40.753Z,0.77
2023-02-03T00:26:28.917Z,0.63
2023-02-03T00:29:18.831Z,3.78
2023-02-03T00:32:06.663Z,0.50
2023-02-03T00:34:56.971Z,1.65
2023-02-03T00:37:47.380Z,3.13
2023-02-03T00:40:35.176Z,0.50
2023-02-03T00:43:22.939Z,3.65
2023-02-03T00:46:11.149Z,1.38
2023-02-03T00:48:58.863Z,3.67
2023-02-03T00:51:46.561Z,2.28
2023-02-03T00:54:34.936Z,0.80
2023-02-03T00:57:23.874Z,3.30
2023-02-03T01:00:12.224Z,6.88
2023-02-03T01:03:00.000Z,2.90
2023-02-03T01:05:47.620Z,1.42
2023-02-03T01:08:35.399Z,0.40
2023-02-03T01:11:29.908Z,1.55
2023-02-03T01:14:18.462Z,1.00
2023-02-03T01:17:06.129Z,4.18
2023-02-03T01:19:54.228Z,4.38
2023-02-03T01:22:42.110Z,0.75
2023-02-03T01:25:29.943Z,5.90
2023-02-03T01:28:18.097Z,5.40
2023-02-03T01:31:10.768Z,3.95
2023-02-03T01:34:00.367Z,3.85
2023-02-03T01:36:48.668Z,4.93
2023-02-03T01:39:36.249Z,2.40
2023-02-03T01:42:31.442Z,3.03
2023-02-03T01:45:19.920Z,6.43
2023-02-03T01:48:08.783Z,3.40
2023-02-03T01:50:58.179Z,1.45
2023-02-03T01:53:47.665Z,4.18
2023-02-03T01:56:39.494Z,0.32
2023-02-03T02:02:17.483Z,2.47
2023-02-03T02:05:21.354Z,4.32
2023-02-03T02:08:09.875Z,3.78
2023-02-03T02:11:00.014Z,1.10
2023-02-03T02:13:54.449Z,2.05
2023-02-03T02:16:53.449Z,2.38
2023-02-03T02:20:25.740Z,2.70
2023-02-03T02:23:42.122Z,2.75
2023-02-03T02:26:41.431Z,2.75
2023-02-03T02:33:06.140Z,2.67
2023-02-03T02:36:11.627Z,3.80
2023-02-03T02:39:20.079Z,5.55
2023-02-03T02:42:30.192Z,4.20
2023-02-03T02:45:50.736Z,1.05
2023-02-03T02:48:47.641Z,1.73
2023-02-03T02:51:38.743Z,3.22
2023-02-03T02:54:30.066Z,9.32
2023-02-03T02:57:20.456Z,1.93
2023-02-03T03:00:14.317Z,3.60
2023-02-03T03:03:23.055Z,8.63
2023-02-03T03:06:39.280Z,1.17
2023-02-03T03:09:40.231Z,5.68
2023-02-03T03:12:36.990Z,1.60
2023-02-03T03:15:29.551Z,2.75
2023-02-03T03:18:28.024Z,5.03
2023-02-03T03:21:25.728Z,13.27
2023-02-03T03:24:20.456Z,6.03
2023-02-03T03:27:21.057Z,1.48
2023-02-03T03:30:28.173Z,1.88
2023-02-03T03:33:27.355Z,2.53
2023-02-03T03:36:20.116Z,3.22
2023-02-03T03:39:16.768Z,5.30
2023-02-03T03:42:13.354Z,4.18
2023-02-03T03:45:17.328Z,2.35
2023-02-03T03:48:27.897Z,6.00
2023-02-03T03:51:22.975Z,2.40
2023-02-03T03:54:15.810Z,5.82
2023-02-03T03:57:27.432Z,4.72
2023-02-03T04:00:18.259Z,1.77
2023-02-03T04:03:12.282Z,5.93
2023-02-03T04:06:00.035Z,2.28
2023-02-03T04:08:49.937Z,6.95
2023-02-03T04:11:56.271Z,11.02
2023-02-03T04:14:43.915Z,2.28
2023-02-03T04:17:36.411Z,2.72
2023-02-03T04:20:25.816Z,2.67
2023-02-03T04:23:16.080Z,3.08
2023-02-03T04:26:03.804Z,2.45
2023-02-03T04:28:51.572Z,2.35
2023-02-03T04:31:41.757Z,3.70
2023-02-03T04:34:29.565Z,1.55
2023-02-03T04:37:17.267Z,5.55
2023-02-03T04:40:05.882Z,4.72
2023-02-03T04:42:53.518Z,3.08
2023-02-03T04:45:41.671Z,2.80
2023-02-03T04:48:29.417Z,2.47
2023-02-03T04:51:17.224Z,4.15
2023-02-03T04:54:04.933Z,5.75
2023-02-03T04:56:55.498Z,3.70
2023-02-03T04:59:43.100Z,4.30
2023-02-03T05:02:30.804Z,2.70
2023-02-03T05:05:18.566Z,1.40
2023-02-03T05:08:06.579Z,5.70
2023-02-03T05:10:55.485Z,2.28
2023-02-03T05:13:53.024Z,1.58
2023-02-03T05:16:41.390Z,8.38
2023-02-03T05:19:31.997Z,9.43
2023-02-03T05:22:19.725Z,7.13
2023-02-03T05:25:08.050Z,1.33
2023-02-03T05:27:55.786Z,1.83
2023-02-03T05:30:43.702Z,1.45
2023-02-03T05:33:31.498Z,3.78
2023-02-03T05:36:19.380Z,2.75
2023-02-03T05:39:17.455Z,3.90
2023-02-03T05:42:05.401Z,2.85
2023-02-03T05:44:52.935Z,1.95
2023-02-03T05:47:41.656Z,5.70
2023-02-03T05:50:33.653Z,4.70
2023-02-03T05:53:30.786Z,4.50
2023-02-03T05:56:18.476Z,2.85
2023-02-03T05:59:10.288Z,6.22
2023-02-03T06:01:57.985Z,4.05
2023-02-03T06:04:45.874Z,3.28
2023-02-03T06:07:33.500Z,4.40
2023-02-03T06:10:22.581Z,2.40
2023-02-03T06:13:15.442Z,7.40
2023-02-03T06:16:03.269Z,5.68
2023-02-03T06:18:52.819Z,10.23
2023-02-03T06:21:40.634Z,5.28
2023-02-03T06:24:28.362Z,8.63
2023-02-03T06:27:16.827Z,6.53
2023-02-03T06:30:05.193Z,5.60
2023-02-03T06:32:52.954Z,3.28
2023-02-03T06:35:40.632Z,5.50
2023-02-03T06:38:28.483Z,6.30
2023-02-03T06:41:16.213Z,3.63
2023-02-03T06:44:04.197Z,7.38
2023-02-03T06:46:52.212Z,3.20
2023-02-03T06:49:42.588Z,6.22
2023-02-03T06:52:30.154Z,4.53
2023-02-03T06:55:20.056Z,4.35
2023-02-03T06:58:07.734Z,2.88
2023-02-03T07:00:58.675Z,2.75
2023-02-03T07:03:48.996Z,4.25
2023-02-03T07:06:36.774Z,3.95
2023-02-03T07:09:24.430Z,7.78
2023-02-03T07:12:12.305Z,3.88
2023-02-03T07:14:59.980Z,2.25
2023-02-03T07:17:54.983Z,4.38
2023-02-03T07:20:42.811Z,2.20
2023-02-03T07:23:39.716Z,1.73
2023-02-03T07:26:27.512Z,4.13
2023-02-03T07:29:15.419Z,3.50
2023-02-03T07:32:03.557Z,7.00
2023-02-03T07:34:51.419Z,2.13
2023-02-03T07:37:39.036Z,3.42
2023-02-03T07:40:27.014Z,1.92
2023-02-03T07:43:18.798Z,3.03
2023-02-03T07:46:06.606Z,1.33
2023-02-03T07:48:54.384Z,8.55
2023-02-03T07:51:48.303Z,0.80
2023-02-03T07:54:35.964Z,3.88
2023-02-03T07:57:23.828Z,5.05
2023-02-03T08:00:14.326Z,3.63
2023-02-03T08:03:02.319Z,3.08
2023-02-03T08:05:50.270Z,4.05
2023-02-03T08:11:39.498Z,3.50
2023-02-03T08:14:27.285Z,1.05
2023-02-03T08:17:15.238Z,3.92
2023-02-03T08:20:05.852Z,2.08
2023-02-03T08:22:56.472Z,1.95
2023-02-03T08:25:44.358Z,1.52
2023-02-03T08:28:32.549Z,1.85
2023-02-03T08:31:23.003Z,1.13
2023-02-03T08:34:10.773Z,1.75
2023-02-03T08:36:58.530Z,2.55
2023-02-03T08:39:46.620Z,6.65
2023-02-03T08:42:36.259Z,7.60
2023-02-03T08:45:24.169Z,0.95
2023-02-03T08:48:15.035Z,2.17
2023-02-03T08:51:09.557Z,1.02
2023-02-03T08:53:58.386Z,3.50
2023-02-03T08:56:46.344Z,4.68
2023-02-03T08:59:40.030Z,0.20
2023-02-03T09:02:27.935Z,2.00
2023-02-03T09:05:18.951Z,0.75
2023-02-03T09:08:06.689Z,1.70
2023-02-03T09:10:55.753Z,0.90
2023-02-03T09:13:46.205Z,3.70
2023-02-03T09:16:36.124Z,6.20
2023-02-03T09:19:23.856Z,3.17
2023-02-03T09:22:11.813Z,0.60
2023-02-03T09:24:59.712Z,1.80
2023-02-03T09:27:47.492Z,1.38
2023-02-03T09:30:35.590Z,0.77
2023-02-03T09:33:23.947Z,8.40
2023-02-03T09:36:13.849Z,1.45
2023-02-03T09:39:01.864Z,0.82
2023-02-03T09:42:02.901Z,2.85
2023-02-03T09:45:07.460Z,0.60
2023-02-03T09:48:07.641Z,1.70
2023-02-03T09:50:58.763Z,1.88
2023-02-03T09:53:58.183Z,0.63
2023-02-03T09:56:52.955Z,1.10
2023-02-03T09:59:43.178Z,5.70
2023-02-03T10:02:51.227Z,0.80
2023-02-03T10:06:03.808Z,1.17
2023-02-03T10:12:33.964Z,1.27
2023-02-03T10:15:25.328Z,4.70
2023-02-03T10:18:38.053Z,1.52
2023-02-03T10:21:47.571Z,0.60
2023-02-03T10:24:42.527Z,3.10
2023-02-03T10:27:33.319Z,1.50
2023-02-03T10:30:32.488Z,1.65
2023-02-03T10:33:25.342Z,1.88
2023-02-03T10:36:23.987Z,1.10
2023-02-03T10:39:17.370Z,1.48
2023-02-03T10:42:09.563Z,2.20
2023-02-03T10:47:57.412Z,11.90
2023-02-03T10:54:30.207Z,2.10
2023-02-03T10:57:18.270Z,1.52
2023-02-03T11:00:17.178Z,1.90
2023-02-03T11:03:13.332Z,1.17
2023-02-03T11:06:14.352Z,2.20
2023-02-03T11:09:03.368Z,1.88
2023-02-03T11:12:23.214Z,3.75
2023-02-03T11:15:17.484Z,1.05
2023-02-03T11:18:05.221Z,0.82
2023-02-03T11:20:53.661Z,0.80
2023-02-03T11:24:07.849Z,1.67
2023-02-03T11:27:05.501Z,1.42
2023-02-03T11:30:12.692Z,2.70
2023-02-03T11:33:24.706Z,1.73
2023-02-03T11:36:14.795Z,2.15
2023-02-03T11:39:19.919Z,4.28
2023-02-03T11:42:23.313Z,2.28
2023-02-03T11:45:33.301Z,0.45
2023-02-03T11:48:35.734Z,8.05
2023-02-03T11:51:39.238Z,6.07
2023-02-03T11:54:29.595Z,3.03
2023-02-03T11:57:36.133Z,0.35
2023-02-03T12:00:53.585Z,2.50
2023-02-03T12:04:16.906Z,1.27
2023-02-03T12:07:43.795Z,2.92
2023-02-03T12:11:17.121Z,3.28
2023-02-03T12:14:28.996Z,0.98
2023-02-03T12:17:47.112Z,0.80
2023-02-03T12:21:14.240Z,3.50
2023-02-03T12:24:19.884Z,1.52
2023-02-03T12:27:30.282Z,0.90
2023-02-03T12:30:27.140Z,0.77
2023-02-03T12:33:52.242Z,1.77
2023-02-03T12:37:00.007Z,1.17
2023-02-03T12:39:53.353Z,2.47
2023-02-03T12:42:50.709Z,2.83
2023-02-03T12:45:55.994Z,2.85
2023-02-03T12:49:12.313Z,5.75
2023-02-03T12:52:06.268Z,2.25
2023-02-03T12:54:56.927Z,1.95
2023-02-03T12:58:14.802Z,1.08
2023-02-03T13:01:21.959Z,8.35
2023-02-03T13:04:30.331Z,3.33
2023-02-03T13:07:50.769Z,1.77
2023-02-03T13:10:53.411Z,3.42
2023-02-03T13:14:06.199Z,1.58
2023-02-03T13:20:27.577Z,0.65
2023-02-03T13:23:18.987Z,2.00
2023-02-03T13:26:34.016Z,1.93
2023-02-03T13:29:24.800Z,128.85
2023-02-03T13:32:37.873Z,11.52
2023-02-03T13:35:42.736Z,6.68
2023-02-03T13:38:57.100Z,1.48
2023-02-03T13:41:52.008Z,0.85
2023-02-03T13:44:43.032Z,0.82
2023-02-03T13:47:19.346Z,1.55
2023-02-03T13:50:18.527Z,1.25
2023-02-03T13:53:14.927Z,5.57
2023-02-03T13:56:05.167Z,0.40
2023-02-03T13:59:06.856Z,5.47
2023-02-03T14:02:31.027Z,6.30
2023-02-03T14:05:42.473Z,11.02
2023-02-03T14:08:30.332Z,2.23
2023-02-03T14:11:36.454Z,0.85
2023-02-03T14:14:24.780Z,1.90
2023-02-03T14:17:34.227Z,1.98
2023-02-03T14:20:27.997Z,2.35
2023-02-03T14:23:21.069Z,0.85
2023-02-03T14:26:33.996Z,1.35
2023-02-03T14:29:33.581Z,0.40
2023-02-03T14:32:21.553Z,1.95
2023-02-03T14:35:36.926Z,2.88
2023-02-03T14:38:33.441Z,3.22
2023-02-03T14:41:41.991Z,2.22
2023-02-03T14:44:38.512Z,5.32
2023-02-03T14:47:37.962Z,0.63
2023-02-03T14:50:44.270Z,2.22
2023-02-03T14:54:01.023Z,2.63
2023-02-03T14:57:19.976Z,4.25
2023-02-03T15:00:35.319Z,3.33
2023-02-03T15:03:25.811Z,3.15
2023-02-03T15:06:44.149Z,4.80
2023-02-03T15:09:48.976Z,2.30
2023-02-03T15:12:42.454Z,2.17
2023-02-03T15:15:36.482Z,1.25
2023-02-03T15:18:31.191Z,2.13
2023-02-03T15:21:21.053Z,3.95
2023-02-03T15:24:19.303Z,3.33
2023-02-03T15:27:22.570Z,2.63
2023-02-03T15:30:27.809Z,3.15
2023-02-03T15:33:21.570Z,2.80
2023-02-03T15:36:20.980Z,6.57
2023-02-03T15:39:11.761Z,2.42
2023-02-03T15:42:00.264Z,7.15
2023-02-03T15:45:11.477Z,5.90
2023-02-03T15:48:12.569Z,3.88
2023-02-03T15:51:11.896Z,6.00
2023-02-03T15:54:12.885Z,4.40
2023-02-03T15:57:05.783Z,5.60
2023-02-03T15:59:59.765Z,7.35
2023-02-03T16:02:48.827Z,8.95
2023-02-03T16:05:37.610Z,9.95
2023-02-03T16:08:46.450Z,9.95
2023-02-03T16:11:38.709Z,3.13
2023-02-03T16:17:33.238Z,2.83
2023-02-03T16:20:32.541Z,3.25
2023-02-03T16:23:29.881Z,2.90
2023-02-03T16:26:19.832Z,9.50
2023-02-03T16:29:30.325Z,10.02
2023-02-03T16:32:37.764Z,3.15
2023-02-03T16:35:44.443Z,8.57
2023-02-03T16:38:50.677Z,7.20
2023-02-03T16:41:57.238Z,5.82
2023-02-03T16:45:04.430Z,3.53
2023-02-03T16:48:10.471Z,4.50
2023-02-03T16:51:10.905Z,3.40
2023-02-03T16:53:58.645Z,3.22
2023-02-03T16:56:46.397Z,1.77
2023-02-03T16:59:34.644Z,3.30
2023-02-03T17:02:22.473Z,2.40
2023-02-03T17:05:13.116Z,1.83
2023-02-03T17:08:00.877Z,3.85
2023-02-03T17:10:49.616Z,36.88
2023-02-03T17:13:40.582Z,17.08
2023-02-03T17:16:28.759Z,9.95
2023-02-03T17:19:16.736Z,14.38
2023-02-03T17:22:04.413Z,13.52
2023-02-03T17:24:52.237Z,24.25
2023-02-03T17:27:40.017Z,18.70
2023-02-03T17:30:34.264Z,49.67
2023-02-03T17:33:21.841Z,44.42
2023-02-03T17:36:20.252Z,56.28
2023-02-03T17:54:36.166Z,47.15
2023-02-03T17:57:23.760Z,39.40
2023-02-03T18:00:12.368Z,38.28
2023-02-03T18:03:00.005Z,37.17
2023-02-03T18:05:51.895Z,37.75
2023-02-03T18:08:40.327Z,38.95
2023-02-03T18:11:29.876Z,48.17
2023-02-03T18:14:18.335Z,43.92
2023-02-03T18:17:06.110Z,37.97
2023-02-03T18:19:56.617Z,41.05
2023-02-03T18:22:45.181Z,56.97
2023-02-03T18:25:35.847Z,47.83
2023-02-03T18:28:23.885Z,41.53
2023-02-03T18:31:15.457Z,38.35
2023-02-03T18:34:03.998Z,28.85
2023-02-03T18:36:51.596Z,30.27
2023-02-03T18:39:39.518Z,24.95
2023-02-03T18:42:27.172Z,22.27
2023-02-03T18:45:14.859Z,28.40
2023-02-03T18:48:06.778Z,30.15
2023-02-03T18:50:54.611Z,35.53
2023-02-03T18:53:42.473Z,21.60
2023-02-03T18:56:39.451Z,63.83
2023-02-03T18:59:27.228Z,30.27
2023-02-03T19:02:14.929Z,25.75
2023-02-03T19:05:02.644Z,52.55
2023-02-03T19:07:50.491Z,40.13
2023-02-03T19:10:38.111Z,30.23
2023-02-03T19:13:25.899Z,32.00
2023-02-03T19:16:17.014Z,60.60
2023-02-03T19:19:04.800Z,66.72
2023-02-03T19:21:57.726Z,77.57
2023-02-03T19:24:46.646Z,82.95
2023-02-03T19:27:34.421Z,112.47
2023-02-03T19:30:22.305Z,82.68
2023-02-03T19:33:09.979Z,93.72
2023-02-03T19:35:57.782Z,74.95
2023-02-03T19:38:45.488Z,66.80
2023-02-03T19:41:36.686Z,51.65
2023-02-03T19:44:25.006Z,32.25
2023-02-03T19:47:12.821Z,39.10
2023-02-03T19:50:00.622Z,27.35
2023-02-03T19:52:49.360Z,32.60
2023-02-03T19:55:38.796Z,28.33
2023-02-03T19:58:26.537Z,40.17
2023-02-03T20:01:14.300Z,33.03
2023-02-03T20:04:02.041Z,29.10
2023-02-03T20:06:49.742Z,62.10
2023-02-03T20:09:37.607Z,45.72
2023-02-03T20:12:25.283Z,40.60
2023-02-03T20:15:13.224Z,32.60
2023-02-03T20:18:00.799Z,28.45
2023-02-03T20:20:53.372Z,39.90
2023-02-03T20:23:41.013Z,36.45
2023-02-03T20:26:28.772Z,36.03
2023-02-03T20:29:16.404Z,35.60
2023-02-03T20:32:10.017Z,26.02
2023-02-03T20:35:00.092Z,26.33
2023-02-03T20:37:47.878Z,34.95
2023-02-03T20:40:35.623Z,32.60
2023-02-03T20:43:26.456Z,37.75
2023-02-03T20:46:18.566Z,40.15
2023-02-03T20:51:58.431Z,38.22
2023-02-03T20:54:46.533Z,69.53
2023-02-03T20:57:34.153Z,57.47
2023-02-03T21:00:26.517Z,39.92
2023-02-03T21:03:35.270Z,48.10
2023-02-03T21:06:25.900Z,44.05
2023-02-03T21:09:16.303Z,33.63
2023-02-03T21:12:12.391Z,37.13
2023-02-03T21:15:00.171Z,29.05
2023-02-03T21:17:47.942Z,33.97
2023-02-03T21:20:37.616Z,22.23
2023-02-03T21:23:55.095Z,4.90
2023-02-03T21:26:51.312Z,5.20
2023-02-03T21:29:55.529Z,4.72
2023-02-03T21:32:44.229Z,3.42
2023-02-03T21:35:37.406Z,2.55
2023-02-03T21:38:32.514Z,4.00
2023-02-03T21:41:22.611Z,2.97
2023-02-03T21:44:32.687Z,0.70
2023-02-03T21:47:20.411Z,1.67
2023-02-03T21:50:36.851Z,0.30
2023-02-03T21:53:27.610Z,0.50
2023-02-03T21:56:20.940Z,0.57
2023-02-03T21:59:21.320Z,0.63
2023-02-03T22:02:38.267Z,0.40
2023-02-03T22:05:25.960Z,1.85
2023-02-03T22:08:25.912Z,1.63
2023-02-03T22:11:16.436Z,1.40
2023-02-03T22:14:06.450Z,0.20
2023-02-03T22:16:54.291Z,0.50
2023-02-03T22:19:42.021Z,0.40
2023-02-03T22:22:31.170Z,2.22
2023-02-03T22:25:18.714Z,0.50
2023-02-03T22:28:06.746Z,0.77
2023-02-03T22:30:54.465Z,1.33
2023-02-03T22:33:44.805Z,1.08
2023-02-03T22:36:32.364Z,1.85
2023-02-03T22:39:20.167Z,1.58
2023-02-03T22:42:07.771Z,15.30
2023-02-03T22:44:55.772Z,9.57
2023-02-03T22:47:43.441Z,28.38
2023-02-03T22:50:35.802Z,29.33
2023-02-03T22:53:24.545Z,11.18
2023-02-03T22:56:12.281Z,53.53
2023-02-03T22:58:59.849Z,32.17
2023-02-03T23:01:47.665Z,53.75
2023-02-03T23:04:35.284Z,8.75
2023-02-03T23:07:23.296Z,8.52
2023-02-03T23:10:16.566Z,6.95
2023-02-03T23:13:05.497Z,6.57
2023-02-03T23:15:53.144Z,3.88
2023-02-03T23:18:48.320Z,2.05
2023-02-03T23:21:38.029Z,0.80
2023-02-03T23:24:28.896Z,3.92
2023-02-03T23:27:16.612Z,4.40
2023-02-03T23:30:06.252Z,5.13
2023-02-03T23:32:53.936Z,5.60
2023-02-03T23:35:47.437Z,3.75
2023-02-03T23:38:36.408Z,13.73
2023-02-03T23:41:24.330Z,7.95
2023-02-03T23:44:12.946Z,7.38
2023-02-03T23:47:00.710Z,5.03
2023-02-03T23:49:50.385Z,4.95
2023-02-03T23:52:38.135Z,6.82
2023-02-03T23:55:28.631Z,7.95
2023-02-03T23:58:16.395Z,3.50
